Time;durP1;ratioP1;P1;durP2;ratioP2;P2;SDS_P1;SDS_P2;PMS_P1;PMS_P2;Temp;Humidity;BMP_temperature;BMP_pressure;BME280_temperature;BME280_humidity;BME280_pressure;Samples;Min_cycle;Max_cycle;Signal;HPM_P1;HPM_P2
2022/06/26 00:01:47;;;;;;;4.68;4.18;;;19.60;99.90;;;;;;5072364;28;20443;-48
2022/06/26 00:04:15;;;;;;;5.03;4.40;;;19.60;99.90;;;;;;5070326;28;20047;-53
2022/06/26 00:06:41;;;;;;;4.40;4.10;;;19.60;99.90;;;;;;5060051;28;20441;-48
2022/06/26 00:09:06;;;;;;;5.28;4.78;;;19.60;99.90;;;;;;5069756;28;20089;-48
2022/06/26 00:11:32;;;;;;;;;;;19.50;99.90;;;;;;5052435;28;20037;-50
2022/06/26 00:13:57;;;;;;;4.40;3.60;;;19.50;99.90;;;;;;5051281;28;19986;-52
2022/06/26 00:16:23;;;;;;;;;;;19.50;99.90;;;;;;5053179;28;20124;-49
2022/06/26 00:18:49;;;;;;;6.85;3.88;;;19.40;99.90;;;;;;5052538;28;19991;-50
2022/06/26 00:21:14;;;;;;;;;;;19.40;99.90;;;;;;5052197;28;20041;-52
2022/06/26 00:23:40;;;;;;;4.18;3.90;;;19.40;99.90;;;;;;5051481;28;19920;-49
2022/06/26 00:26:06;;;;;;;4.50;4.15;;;19.40;99.90;;;;;;5053452;28;20041;-48
2022/06/26 00:28:31;;;;;;;;;;;19.40;99.90;;;;;;5052411;28;20482;-48
2022/06/26 00:30:57;;;;;;;5.65;5.13;;;19.30;99.90;;;;;;5069110;28;19916;-55
2022/06/26 00:33:22;;;;;;;;;;;19.30;99.90;;;;;;5071531;28;20040;-53
2022/06/26 00:35:48;;;;;;;7.68;4.68;;;19.40;99.90;;;;;;5071992;28;19942;-49
2022/06/26 00:38:14;;;;;;;;;;;19.40;99.90;;;;;;5072087;28;20047;-47
2022/06/26 00:40:42;;;;;;;5.88;5.07;;;19.40;99.90;;;;;;5070098;28;19917;-48
2022/06/26 00:43:08;;;;;;;4.63;4.25;;;19.30;99.90;;;;;;5070046;28;20487;-48
2022/06/26 00:45:33;;;;;;;6.72;4.32;;;19.30;99.90;;;;;;5071715;28;20140;-51
2022/06/26 00:47:59;;;;;;;;;;;19.30;99.90;;;;;;5071733;28;20036;-50
2022/06/26 00:50:25;;;;;;;4.75;4.30;;;19.30;99.90;;;;;;5069845;28;20323;-48
2022/06/26 00:52:51;;;;;;;;;;;19.30;99.90;;;;;;5070902;28;20045;-48
2022/06/26 00:55:17;;;;;;;5.47;4.43;;;19.30;99.90;;;;;;5057173;28;19920;-48
2022/06/26 00:57:42;;;;;;;5.35;4.95;;;19.30;99.90;;;;;;5070571;28;20050;-47
2022/06/26 01:00:10;;;;;;;6.53;5.93;;;19.30;99.90;;;;;;5071235;28;20512;-49
2022/06/26 01:02:37;;;;;;;8.80;5.82;;;19.20;99.90;;;;;;5050746;28;20067;-49
2022/06/26 01:05:03;;;;;;;7.00;6.38;;;19.20;99.90;;;;;;5050690;28;20114;-48
2022/06/26 01:07:30;;;;;;;7.00;6.32;;;19.20;99.90;;;;;;5051177;28;20128;-48
2022/06/26 01:09:56;;;;;;;6.55;5.90;;;19.20;99.90;;;;;;5056072;28;20393;-53
2022/06/26 01:12:22;;;;;;;7.10;5.30;;;19.20;99.90;;;;;;5068726;28;20119;-48
2022/06/26 01:14:48;;;;;;;;;;;19.20;99.90;;;;;;5054307;28;20041;-50
2022/06/26 01:17:14;;;;;;;5.95;5.40;;;19.10;99.90;;;;;;5050813;28;20267;-53
2022/06/26 01:19:40;;;;;;;9.73;6.68;;;19.00;99.90;;;;;;5050663;28;20041;-48
2022/06/26 01:22:06;;;;;;;7.10;6.43;;;18.90;99.90;;;;;;5051726;28;20050;-48
2022/06/26 01:24:31;;;;;;;7.72;7.00;;;18.80;99.90;;;;;;5064285;28;20086;-49
2022/06/26 01:27:00;;;;;;;15.90;9.95;;;18.80;99.90;;;;;;5070132;28;20072;-48
2022/06/26 01:29:26;;;;;;;10.77;9.88;;;18.80;99.90;;;;;;5070865;28;20047;-50
2022/06/26 01:31:51;;;;;;;15.30;10.80;;;18.80;99.90;;;;;;5069355;28;20456;-51
2022/06/26 01:34:17;;;;;;;;;;;18.80;99.90;;;;;;5069670;28;20074;-49
2022/06/26 01:36:43;;;;;;;11.10;9.75;;;18.90;99.90;;;;;;5056140;28;19931;-49
2022/06/26 01:39:08;;;;;;;11.63;9.88;;;19.00;99.90;;;;;;5050503;28;20120;-51
2022/06/26 01:41:34;;;;;;;;;;;19.10;99.90;;;;;;5050202;28;20044;-49
2022/06/26 01:44:00;;;;;;;12.65;9.55;;;19.10;99.90;;;;;;5062585;28;19924;-48
2022/06/26 01:46:26;;;;;;;11.38;10.15;;;19.10;99.90;;;;;;5070201;28;20032;-49
2022/06/26 01:48:52;;;;;;;12.60;11.13;;;19.10;99.90;;;;;;5070389;28;20032;-48
2022/06/26 01:51:18;;;;;;;11.68;9.98;;;19.20;99.90;;;;;;5068101;28;20520;-52
2022/06/26 01:53:44;;;;;;;12.48;11.35;;;19.20;99.90;;;;;;5067806;28;20036;-49
2022/06/26 01:56:09;;;;;;;11.30;10.23;;;19.20;99.90;;;;;;5067703;28;20036;-49
2022/06/26 01:58:35;;;;;;;13.10;11.80;;;19.20;99.90;;;;;;5070341;28;20125;-52
2022/06/26 02:01:01;;;;;;;;;;;19.30;99.90;;;;;;5068992;28;20036;-52
2022/06/26 02:03:29;;;;;;;11.52;9.45;;;19.30;99.90;;;;;;5067296;28;20412;-48
2022/06/26 02:05:54;;;;;;;15.68;12.93;;;19.30;99.90;;;;;;5069679;28;20055;-52
2022/06/26 02:08:20;;;;;;;18.15;13.60;;;19.40;99.90;;;;;;5059376;28;20025;-50
2022/06/26 02:13:36;;;;;;;16.60;14.85;;;19.40;99.90;;;;;;5049444;28;20003;-51
2022/06/26 02:16:02;;;;;;;17.58;14.10;;;19.40;99.90;;;;;;5050601;28;20041;-54
2022/06/26 02:18:28;;;;;;;15.90;14.38;;;19.30;99.90;;;;;;5049977;28;20079;-50
2022/06/26 02:20:54;;;;;;;15.98;13.45;;;19.30;99.90;;;;;;5049051;28;20091;-52
2022/06/26 02:23:20;;;;;;;;;;;19.30;99.90;;;;;;5054535;28;20490;-54
2022/06/26 02:25:46;;;;;;;16.65;14.73;;;19.30;99.90;;;;;;5051730;28;19920;-58
2022/06/26 02:28:13;;;;;;;19.77;14.65;;;19.30;99.90;;;;;;5048270;28;20049;-52
2022/06/26 02:30:39;;;;;;;16.38;14.68;;;19.30;99.90;;;;;;5061406;28;20051;-50
2022/06/26 02:33:04;;;;;;;17.83;15.00;;;19.30;99.90;;;;;;5069237;28;20044;-55
2022/06/26 02:35:30;;;;;;;18.95;15.43;;;19.30;99.90;;;;;;5059554;28;20040;-52
2022/06/26 02:37:56;;;;;;;;;;;19.30;99.90;;;;;;5069710;28;20123;-52
2022/06/26 02:40:24;;;;;;;16.23;14.48;;;19.30;99.90;;;;;;5069215;28;20054;-49
2022/06/26 02:42:49;;;;;;;17.02;15.25;;;19.30;99.90;;;;;;5052208;28;20116;-48
2022/06/26 02:45:15;;;;;;;17.42;15.82;;;19.30;99.90;;;;;;5050783;28;20120;-50
2022/06/26 02:47:41;;;;;;;;;;;19.30;99.90;;;;;;5049822;28;20490;-52
2022/06/26 02:50:07;;;;;;;17.10;15.38;;;19.20;99.90;;;;;;5057707;28;19920;-48
2022/06/26 02:52:33;;;;;;;23.30;16.67;;;19.30;99.90;;;;;;5069033;28;20040;-51
2022/06/26 02:55:00;;;;;;;19.30;17.23;;;19.30;99.90;;;;;;5068415;28;20040;-50
2022/06/26 02:57:26;;;;;;;20.48;15.90;;;19.20;99.90;;;;;;5067627;28;20094;-49
2022/06/26 02:59:52;;;;;;;17.70;16.20;;;19.20;99.90;;;;;;5050256;28;20482;-49
2022/06/26 03:02:17;;;;;;;17.35;15.52;;;19.20;99.90;;;;;;5047457;28;20482;-49
2022/06/26 03:04:43;;;;;;;17.10;15.35;;;19.20;99.90;;;;;;5058320;28;20090;-53
2022/06/26 03:07:08;;;;;;;;;;;19.10;99.90;;;;;;5062181;28;20805;-49
2022/06/26 03:09:34;;;;;;;14.45;12.90;;;19.10;99.90;;;;;;5049166;28;19924;-49
2022/06/26 03:12:00;;;;;;;15.45;13.38;;;19.00;99.90;;;;;;5055415;28;20057;-51
2022/06/26 03:14:26;;;;;;;14.60;13.10;;;19.00;99.90;;;;;;5068698;28;20040;-48
2022/06/26 03:16:52;;;;;;;13.48;12.10;;;19.00;99.90;;;;;;5066940;28;20055;-51
2022/06/26 03:19:17;;;;;;;13.82;12.60;;;19.00;99.90;;;;;;5069231;28;20079;-50
2022/06/26 03:21:43;;;;;;;16.98;12.45;;;18.90;99.90;;;;;;5068509;28;20490;-48
2022/06/26 03:24:09;;;;;;;15.40;12.43;;;18.80;99.90;;;;;;5068581;28;20548;-50
2022/06/26 03:26:36;;;;;;;17.17;11.80;;;18.80;99.90;;;;;;5067011;28;20037;-48
2022/06/26 03:29:03;;;;;;;12.80;11.60;;;18.80;99.90;;;;;;5054542;28;20098;-48
2022/06/26 03:31:28;;;;;;;16.45;11.85;;;18.80;99.90;;;;;;5057400;28;20120;-48
2022/06/26 03:33:55;;;;;;;11.13;9.82;;;18.80;99.90;;;;;;5049881;28;20550;-52
2022/06/26 03:36:22;;;;;;;13.10;10.35;;;18.80;99.90;;;;;;5048606;28;20068;-48
2022/06/26 03:38:48;;;;;;;11.07;9.82;;;18.70;99.90;;;;;;5051726;28;20098;-51
2022/06/26 03:41:14;;;;;;;12.77;11.40;;;18.70;99.90;;;;;;5051218;28;20043;-52
2022/06/26 03:43:40;;;;;;;10.90;9.90;;;18.70;99.90;;;;;;5052084;28;20306;-50
2022/06/26 03:46:06;;;;;;;11.25;10.02;;;18.70;99.90;;;;;;5052659;28;20468;-48
2022/06/26 03:48:31;;;;;;;11.68;9.52;;;18.70;99.90;;;;;;5053493;28;20041;-50
2022/06/26 03:50:57;;;;;;;12.10;9.18;;;18.70;99.90;;;;;;5052471;28;20044;-56
2022/06/26 03:53:23;;;;;;;11.30;8.85;;;18.60;99.90;;;;;;5052066;28;20049;-48
2022/06/26 03:55:49;;;;;;;;;;;18.60;99.90;;;;;;5073267;28;20393;-48
2022/06/26 03:58:15;;;;;;;13.50;8.75;;;18.60;99.90;;;;;;5072370;28;19916;-52
2022/06/26 04:00:40;;;;;;;;;;;18.60;99.90;;;;;;5069111;28;20037;-49
2022/06/26 04:03:06;;;;;;;9.82;8.32;;;18.60;99.90;;;;;;5070998;28;20408;-48
2022/06/26 04:05:34;;;;;;;10.15;9.10;;;18.50;99.90;;;;;;5072486;28;20032;-48
2022/06/26 04:07:59;;;;;;;9.55;8.57;;;18.50;99.90;;;;;;5072109;28;20554;-49
2022/06/26 04:10:25;;;;;;;8.43;7.60;;;18.50;99.90;;;;;;5070998;28;20123;-53
2022/06/26 04:12:51;;;;;;;;;;;18.50;99.90;;;;;;5070640;28;20036;-55
2022/06/26 04:15:17;;;;;;;9.27;8.07;;;18.50;99.90;;;;;;5055573;28;20524;-49
2022/06/26 04:17:43;;;;;;;;;;;18.40;99.90;;;;;;5052416;28;20509;-48
2022/06/26 04:20:09;;;;;;;8.68;7.63;;;18.40;99.90;;;;;;5053224;28;19959;-49
2022/06/26 04:22:35;;;;;;;7.70;6.97;;;18.30;99.90;;;;;;5051731;28;20047;-49
2022/06/26 04:25:01;;;;;;;7.07;6.38;;;18.30;99.90;;;;;;5051738;28;20393;-49
2022/06/26 04:27:27;;;;;;;8.38;5.88;;;18.30;99.90;;;;;;5051805;28;20055;-48
2022/06/26 04:29:52;;;;;;;12.52;6.40;;;18.30;99.90;;;;;;5052646;28;20029;-49
2022/06/26 04:32:18;;;;;;;8.13;7.05;;;18.30;99.90;;;;;;5052876;28;20052;-51
2022/06/26 04:34:43;;;;;;;7.85;7.15;;;18.30;99.90;;;;;;5062094;28;20408;-48
2022/06/26 04:37:09;;;;;;;7.57;6.63;;;18.30;99.90;;;;;;5070306;28;20036;-49
2022/06/26 04:39:35;;;;;;;6.28;5.68;;;18.20;99.90;;;;;;5071922;28;20036;-51
2022/06/26 04:42:00;;;;;;;5.45;4.57;;;18.20;99.90;;;;;;5064404;28;20036;-50
2022/06/26 04:44:26;;;;;;;6.07;3.25;;;18.10;99.90;;;;;;5050683;28;20051;-48
2022/06/26 04:46:52;;;;;;;3.50;3.10;;;18.10;99.90;;;;;;5051406;28;20283;-48
2022/06/26 04:49:18;;;;;;;3.40;3.15;;;18.00;99.90;;;;;;5050545;28;20048;-52
2022/06/26 04:51:44;;;;;;;2.60;2.40;;;18.00;99.90;;;;;;5051844;28;20037;-48
2022/06/26 04:54:10;;;;;;;3.75;3.08;;;18.00;99.90;;;;;;5070632;28;20040;-49
2022/06/26 04:56:36;;;;;;;3.45;2.70;;;18.00;99.90;;;;;;5061031;28;20538;-51
2022/06/26 04:59:03;;;;;;;2.80;2.60;;;17.90;99.90;;;;;;5065483;28;20111;-48
2022/06/26 05:01:30;;;;;;;2.90;2.60;;;18.00;99.90;;;;;;5070419;28;20379;-48
2022/06/26 05:03:55;;;;;;;3.50;2.78;;;18.00;99.90;;;;;;5068885;28;20076;-48
2022/06/26 05:06:21;;;;;;;5.38;2.90;;;17.90;99.90;;;;;;5070652;28;20079;-50
2022/06/26 05:08:47;;;;;;;4.03;3.65;;;17.90;99.90;;;;;;5070695;28;20123;-49
2022/06/26 05:11:13;;;;;;;3.55;3.25;;;17.90;99.90;;;;;;5050900;28;20200;-49
2022/06/26 05:13:38;;;;;;;;;;;17.90;99.90;;;;;;5060181;28;20041;-49
2022/06/26 05:16:04;;;;;;;3.95;3.63;;;17.90;99.90;;;;;;5070713;28;19961;-53
2022/06/26 05:18:30;;;;;;;3.88;3.50;;;17.90;99.90;;;;;;5061924;28;20068;-49
2022/06/26 05:20:55;;;;;;;4.72;4.28;;;17.90;99.90;;;;;;5050999;28;20049;-48
2022/06/26 05:23:21;;;;;;;5.70;4.75;;;18.00;99.90;;;;;;5050638;28;20067;-49
2022/06/26 05:25:47;;;;;;;7.15;4.55;;;18.10;99.90;;;;;;5053018;28;20062;-49
2022/06/26 05:28:13;;;;;;;5.25;4.78;;;18.10;99.90;;;;;;5070699;28;20036;-53
2022/06/26 05:30:39;;;;;;;5.95;5.30;;;18.10;99.90;;;;;;5070768;28;20052;-48
2022/06/26 05:33:04;;;;;;;8.70;6.30;;;18.10;99.90;;;;;;5069220;28;20153;-49
2022/06/26 05:35:30;;;;;;;7.53;6.82;;;18.10;99.90;;;;;;5051900;28;20041;-49
2022/06/26 05:37:56;;;;;;;8.07;7.38;;;18.10;99.90;;;;;;5053310;28;20501;-52
2022/06/26 05:40:22;;;;;;;8.48;7.45;;;18.10;99.90;;;;;;5070066;28;20059;-51
2022/06/26 05:42:48;;;;;;;10.43;8.02;;;18.10;99.90;;;;;;5069660;28;20040;-50
2022/06/26 05:45:13;;;;;;;10.73;9.25;;;18.10;99.90;;;;;;5057750;28;20575;-48
2022/06/26 05:47:39;;;;;;;9.68;8.68;;;18.10;99.90;;;;;;5050162;28;20127;-48
2022/06/26 05:50:06;;;;;;;10.02;8.60;;;18.10;99.90;;;;;;5050469;28;20037;-50
2022/06/26 05:52:32;;;;;;;10.70;9.80;;;18.10;99.90;;;;;;5050175;28;20041;-48
2022/06/26 05:54:58;;;;;;;11.40;10.40;;;18.10;99.90;;;;;;5050361;28;20033;-48
2022/06/26 05:57:25;;;;;;;11.80;10.70;;;18.20;99.90;;;;;;5070283;28;20090;-48
2022/06/26 05:59:50;;;;;;;11.15;9.73;;;18.30;99.90;;;;;;5051131;28;20458;-54
2022/06/26 06:02:16;;;;;;;11.98;10.73;;;18.30;99.90;;;;;;5050390;28;20075;-48
2022/06/26 06:04:42;;;;;;;15.13;13.13;;;18.40;99.90;;;;;;5049531;28;20073;-49
2022/06/26 06:07:08;;;;;;;15.70;14.02;;;18.40;99.90;;;;;;5051857;28;20040;-49
2022/06/26 06:09:33;;;;;;;15.85;14.10;;;18.40;99.90;;;;;;5068567;28;20420;-49
2022/06/26 06:11:59;;;;;;;14.95;13.57;;;18.40;99.90;;;;;;5069616;28;20033;-52
2022/06/26 06:14:24;;;;;;;15.80;14.20;;;18.50;99.90;;;;;;5069537;28;20064;-49
2022/06/26 06:16:50;;;;;;;14.38;12.65;;;18.50;99.90;;;;;;5066315;28;20510;-48
2022/06/26 06:19:16;;;;;;;13.15;11.80;;;18.40;99.90;;;;;;5069989;28;20063;-48
2022/06/26 06:21:41;;;;;;;14.57;11.85;;;18.50;99.90;;;;;;5051637;28;20379;-54
2022/06/26 06:24:07;;;;;;;11.27;10.27;;;18.40;99.90;;;;;;5048694;28;20091;-48
2022/06/26 06:26:32;;;;;;;11.05;9.25;;;18.50;99.90;;;;;;5055135;28;20036;-48
2022/06/26 06:28:58;;;;;;;9.95;9.15;;;18.50;99.90;;;;;;5069290;28;20460;-48
2022/06/26 06:31:24;;;;;;;10.63;9.63;;;18.50;99.90;;;;;;5069104;28;20044;-51
2022/06/26 06:33:49;;;;;;;12.18;10.85;;;18.50;99.90;;;;;;5068755;28;20470;-52
2022/06/26 06:36:15;;;;;;;13.75;12.40;;;18.50;99.90;;;;;;5069344;28;20048;-48
2022/06/26 06:38:40;;;;;;;13.63;10.85;;;18.50;99.90;;;;;;5067417;28;20036;-49
2022/06/26 06:41:06;;;;;;;;;;;18.60;99.90;;;;;;5057468;28;20064;-49
2022/06/26 06:43:32;;;;;;;12.77;11.52;;;18.60;99.90;;;;;;5048726;28;19941;-52
2022/06/26 06:45:58;;;;;;;11.13;10.00;;;18.60;99.90;;;;;;5049526;28;20466;-48
2022/06/26 06:48:27;;;;;;;9.80;8.93;;;18.60;99.90;;;;;;5060998;28;20139;-51
2022/06/26 06:50:53;;;;;;;13.18;11.60;;;18.60;99.90;;;;;;5069758;28;20043;-48
2022/06/26 06:53:19;;;;;;;12.63;11.52;;;18.60;99.90;;;;;;5068520;28;20036;-48
2022/06/26 06:55:46;;;;;;;13.73;11.40;;;18.60;99.90;;;;;;5056495;28;20052;-49
2022/06/26 06:58:11;;;;;;;;;;;18.70;99.90;;;;;;5050740;28;20036;-49
2022/06/26 07:00:37;;;;;;;12.02;10.70;;;18.60;99.90;;;;;;5049698;28;19932;-48
2022/06/26 07:03:04;;;;;;;11.65;10.43;;;18.70;99.90;;;;;;5047236;28;20049;-49
2022/06/26 07:05:30;;;;;;;16.50;14.25;;;18.70;99.90;;;;;;5049378;28;20052;-49
2022/06/26 07:07:56;;;;;;;;;;;18.80;99.90;;;;;;5049496;28;20033;-54
2022/06/26 07:10:22;;;;;;;14.95;13.35;;;18.80;99.90;;;;;;5069472;28;19917;-48
2022/06/26 07:12:52;;;;;;;16.67;14.93;;;18.80;99.90;;;;;;5068364;28;20115;-53
2022/06/26 07:15:18;;;;;;;14.77;13.27;;;18.80;99.90;;;;;;5073224;28;20143;-48
2022/06/26 07:17:44;;;;;;;16.45;14.80;;;18.80;99.90;;;;;;5071730;28;20553;-48
2022/06/26 07:20:10;;;;;;;16.65;14.95;;;18.80;99.90;;;;;;5067020;28;20037;-52
2022/06/26 07:22:35;;;;;;;16.20;14.60;;;18.70;99.90;;;;;;5056854;28;20064;-48
2022/06/26 07:25:01;;;;;;;16.58;14.88;;;18.70;99.90;;;;;;5068674;28;20068;-50
2022/06/26 07:27:27;;;;;;;15.63;14.00;;;18.70;99.90;;;;;;5072213;28;20342;-50
2022/06/26 07:29:52;;;;;;;16.17;12.32;;;18.80;99.90;;;;;;5068599;28;20043;-51
2022/06/26 07:32:18;;;;;;;16.17;14.48;;;18.80;99.90;;;;;;5058398;28;20189;-48
2022/06/26 07:34:44;;;;;;;14.00;12.57;;;18.90;99.90;;;;;;5071759;28;20079;-48
2022/06/26 07:37:09;;;;;;;14.85;13.40;;;19.00;99.90;;;;;;5066567;28;20404;-49
2022/06/26 07:39:35;;;;;;;18.70;14.05;;;19.00;99.90;;;;;;5059230;28;20029;-54
2022/06/26 07:42:00;;;;;;;;;;;19.10;99.90;;;;;;5071847;28;20044;-48
2022/06/26 07:44:26;;;;;;;14.85;13.23;;;19.20;99.90;;;;;;5069054;28;19938;-49
2022/06/26 07:46:52;;;;;;;17.98;13.32;;;19.20;99.90;;;;;;5068551;28;20039;-51
2022/06/26 07:49:17;;;;;;;14.73;13.50;;;19.20;99.90;;;;;;5053094;28;20163;-49
2022/06/26 07:51:43;;;;;;;;;;;19.30;99.90;;;;;;5065630;28;20471;-48
2022/06/26 07:54:09;;;;;;;12.95;11.85;;;19.30;99.90;;;;;;5072314;28;19916;-48
2022/06/26 07:56:35;;;;;;;14.55;13.25;;;19.30;99.90;;;;;;5068611;28;20096;-49
2022/06/26 07:59:01;;;;;;;12.57;11.48;;;19.30;99.90;;;;;;5072694;28;20121;-49
2022/06/26 08:01:27;;;;;;;13.35;11.98;;;19.40;99.90;;;;;;5062743;28;20043;-48
2022/06/26 08:03:53;;;;;;;;;;;19.40;99.90;;;;;;5070829;28;20537;-48
2022/06/26 08:06:19;;;;;;;10.82;9.80;;;19.40;99.90;;;;;;5071643;28;20003;-49
2022/06/26 08:08:44;;;;;;;;;;;19.40;99.90;;;;;;5072199;28;20037;-49
2022/06/26 08:11:10;;;;;;;11.05;10.05;;;19.50;99.90;;;;;;5062376;28;20289;-51
2022/06/26 08:13:36;;;;;;;12.63;11.52;;;19.40;99.90;;;;;;5052241;28;20431;-49
2022/06/26 08:16:01;;;;;;;;;;;19.50;99.90;;;;;;5068361;28;20039;-48
2022/06/26 08:18:27;;;;;;;11.32;10.32;;;19.50;99.90;;;;;;5072193;28;19939;-52
2022/06/26 08:20:52;;;;;;;8.55;7.70;;;19.50;99.90;;;;;;5065238;28;20406;-51
2022/06/26 08:23:18;;;;;;;10.35;9.32;;;19.60;99.90;;;;;;5063541;28;20060;-48
2022/06/26 08:25:44;;;;;;;;;;;19.60;99.90;;;;;;5054919;28;20120;-49
2022/06/26 08:28:09;;;;;;;5.65;5.25;;;19.60;99.90;;;;;;5064776;28;19993;-49
2022/06/26 08:30:35;;;;;;;6.78;6.07;;;19.70;99.90;;;;;;5065057;28;20031;-49
2022/06/26 08:33:00;;;;;;;6.18;5.68;;;19.80;99.90;;;;;;5076616;28;20408;-48
2022/06/26 08:35:26;;;;;;;;;;;19.80;99.90;;;;;;5078867;28;20071;-50
2022/06/26 08:37:53;;;;;;;5.40;4.90;;;19.80;99.90;;;;;;5064704;28;19962;-49
2022/06/26 08:40:19;;;;;;;4.60;4.10;;;19.90;99.90;;;;;;5070333;28;20120;-51
2022/06/26 08:42:49;;;;;;;4.55;4.15;;;19.90;99.90;;;;;;5066788;28;20112;-49
2022/06/26 08:45:17;;;;;;;8.18;6.55;;;19.90;99.90;;;;;;5059073;28;20337;-49
2022/06/26 08:47:47;;;;;;;7.60;6.93;;;20.00;99.90;;;;;;5071191;28;20032;-49
2022/06/26 08:50:13;;;;;;;5.13;4.45;;;20.10;99.90;;;;;;5064451;28;20405;-49
2022/06/26 08:52:40;;;;;;;5.22;4.80;;;20.20;99.90;;;;;;5068071;28;20028;-49
2022/06/26 08:55:06;;;;;;;5.45;4.57;;;20.30;99.90;;;;;;5055226;28;20409;-51
2022/06/26 08:57:33;;;;;;;5.05;3.65;;;20.30;99.90;;;;;;5067026;28;20041;-49
2022/06/26 08:59:59;;;;;;;5.68;4.93;;;20.40;99.90;;;;;;5051677;28;20402;-50
2022/06/26 09:02:24;;;;;;;7.03;5.50;;;20.40;99.90;;;;;;5048477;28;20043;-49
2022/06/26 09:04:50;;;;;;;8.10;5.90;;;20.40;99.90;;;;;;5055418;28;20037;-49
2022/06/26 09:07:17;;;;;;;4.22;3.83;;;20.50;99.90;;;;;;5070326;28;20036;-51
2022/06/26 09:09:42;;;;;;;5.22;3.65;;;20.50;99.90;;;;;;5052855;28;20052;-49
2022/06/26 09:12:08;;;;;;;5.68;3.67;;;20.60;99.90;;;;;;5069430;28;20474;-51
2022/06/26 09:14:33;;;;;;;;;;;20.60;99.90;;;;;;5064281;28;20039;-51
2022/06/26 09:17:00;;;;;;;3.35;3.10;;;20.70;99.90;;;;;;5068637;28;20277;-48
2022/06/26 09:19:30;;;;;;;6.68;3.70;;;20.70;99.90;;;;;;5061879;28;20040;-48
2022/06/26 09:22:07;;;;;;;4.78;4.03;;;20.70;99.90;;;;;;5065450;28;20055;-49
2022/06/26 09:24:36;;;;;;;5.88;3.72;;;20.80;99.90;;;;;;5067857;28;20040;-49
2022/06/26 09:27:10;;;;;;;5.63;4.25;;;20.70;99.90;;;;;;5054186;28;20048;-49
2022/06/26 09:29:36;;;;;;;4.32;3.92;;;20.80;99.90;;;;;;5056976;28;20119;-49
2022/06/26 09:32:14;;;;;;;4.32;3.92;;;20.80;99.90;;;;;;5052497;28;20484;-48
2022/06/26 09:34:49;;;;;;;5.80;4.07;;;20.80;99.90;;;;;;5050159;28;20048;-49
2022/06/26 09:37:15;;;;;;;3.75;2.95;;;20.90;99.90;;;;;;5065318;28;20289;-53
2022/06/26 09:39:40;;;;;;;;;;;20.90;99.90;;;;;;5067320;28;20505;-50
2022/06/26 09:42:18;;;;;;;4.03;3.47;;;20.90;99.90;;;;;;5054609;28;19931;-51
2022/06/26 09:44:46;;;;;;;3.78;3.45;;;20.90;99.90;;;;;;5031497;28;20052;-50
2022/06/26 09:47:26;;;;;;;3.78;3.40;;;20.90;99.90;;;;;;5062426;28;20482;-51
2022/06/26 09:49:53;;;;;;;4.88;3.10;;;21.00;99.90;;;;;;5067537;28;20032;-50
2022/06/26 09:52:24;;;;;;;4.38;3.97;;;21.00;99.90;;;;;;5055245;28;20048;-54
2022/06/26 09:54:51;;;;;;;4.80;3.92;;;20.90;99.90;;;;;;5067329;28;20040;-49
2022/06/26 09:57:17;;;;;;;4.32;3.80;;;20.90;99.90;;;;;;5061969;28;20045;-53
2022/06/26 09:59:43;;;;;;;;;;;20.90;99.90;;;;;;5069851;28;20043;-49
2022/06/26 10:07:48;;;;;;;39.30;33.40;;;20.90;99.90;;;;;;5066540;28;20048;-51
2022/06/26 10:10:15;;;;;;;94.03;12.40;;;20.90;99.90;;;;;;5063513;28;20520;-49
2022/06/26 10:12:42;;;;;;;3.30;2.67;;;21.00;99.90;;;;;;5062354;28;20048;-54
2022/06/26 10:15:10;;;;;;;2.90;2.65;;;21.00;99.90;;;;;;5062998;28;20052;-49
2022/06/26 10:17:43;;;;;;;2.70;1.42;;;21.00;99.90;;;;;;5066554;28;20032;-50
2022/06/26 10:20:15;;;;;;;3.85;2.58;;;21.10;99.90;;;;;;5063761;28;20433;-51
2022/06/26 10:22:43;;;;;;;12.38;3.00;;;21.10;99.90;;;;;;5059784;28;20040;-50
2022/06/26 10:25:24;;;;;;;2.67;1.40;;;21.10;99.90;;;;;;5061588;28;20090;-52
2022/06/26 10:27:49;;;;;;;6.55;2.38;;;21.10;99.50;;;;;;5061463;28;20042;-51
2022/06/26 10:30:16;;;;;;;;;;;21.00;99.40;;;;;;5050385;28;20488;-53
2022/06/26 10:32:43;;;;;;;2.67;2.27;;;21.00;99.40;;;;;;5057929;28;19962;-51
2022/06/26 10:35:10;;;;;;;2.95;1.77;;;21.00;99.50;;;;;;5066430;28;20036;-50
2022/06/26 10:37:45;;;;;;;2.75;1.60;;;20.90;99.70;;;;;;5063935;28;20049;-49
2022/06/26 10:42:52;;;;;;;3.72;2.20;;;20.90;99.90;;;;;;5065866;28;20036;-53
2022/06/26 10:43:01;;;;;;;4.90;3.55;;;21.00;99.90;;;;;;5063264;28;20074;-54
2022/06/26 10:45:36;;;;;;;;;;;21.00;99.90;;;;;;5068271;28;20040;-53
2022/06/26 10:48:07;;;;;;;1.80;1.60;;;21.00;99.90;;;;;;5051643;28;19923;-49
2022/06/26 10:50:39;;;;;;;3.60;2.00;;;21.10;99.90;;;;;;5048458;28;20035;-51
2022/06/26 10:53:21;;;;;;;3.10;1.85;;;21.10;99.70;;;;;;5048410;28;20305;-53
2022/06/26 10:56:02;;;;;;;3.80;1.80;;;21.10;99.60;;;;;;5048001;28;20045;-53
2022/06/26 10:58:37;;;;;;;4.85;2.10;;;21.00;99.00;;;;;;5050232;28;20513;-49
2022/06/26 11:01:05;;;;;;;2.85;1.38;;;21.00;99.60;;;;;;5048907;28;20044;-52
2022/06/26 11:03:32;;;;;;;2.70;1.05;;;21.00;99.30;;;;;;5047303;28;20130;-51
2022/06/26 11:06:05;;;;;;;2.25;1.48;;;21.10;99.80;;;;;;5049404;28;20051;-55
2022/06/26 11:08:37;;;;;;;2.95;1.70;;;21.10;99.80;;;;;;5050819;28;20110;-53
2022/06/26 11:11:20;;;;;;;2.97;1.70;;;21.20;99.70;;;;;;5065246;28;20040;-50
2022/06/26 11:13:52;;;;;;;4.82;1.80;;;21.30;99.00;;;;;;5049969;28;20547;-51
2022/06/26 11:16:27;;;;;;;2.15;1.08;;;21.30;98.80;;;;;;5052377;28;20093;-53
2022/06/26 11:18:52;;;;;;;3.63;1.65;;;21.30;99.00;;;;;;5065172;28;20049;-49
2022/06/26 11:21:18;;;;;;;;;;;21.30;98.70;;;;;;5066440;28;20067;-50
2022/06/26 11:23:44;;;;;;;4.35;2.90;;;21.30;98.30;;;;;;5066176;28;20430;-52
2022/06/26 11:26:13;;;;;;;2.60;1.98;;;21.30;98.60;;;;;;5067097;28;20062;-53
2022/06/26 11:28:42;;;;;;;3.75;1.40;;;21.40;99.20;;;;;;5056055;28;20051;-51
2022/06/26 11:31:18;;;;;;;4.82;2.15;;;21.40;98.80;;;;;;5057059;28;20032;-50
2022/06/26 11:33:44;;;;;;;3.33;2.08;;;21.40;98.60;;;;;;5060287;28;20075;-49
2022/06/26 11:36:15;;;;;;;3.85;2.10;;;21.50;99.00;;;;;;5068692;28;20497;-49
2022/06/26 11:39:07;;;;;;;3.72;2.17;;;21.50;98.20;;;;;;5063370;28;20524;-49
2022/06/26 11:41:34;;;;;;;4.78;2.28;;;21.60;98.40;;;;;;5045707;28;20053;-53
2022/06/26 11:44:00;;;;;;;3.00;1.85;;;21.70;99.20;;;;;;5061119;28;20162;-51
2022/06/26 11:46:25;;;;;;;;;;;21.70;99.20;;;;;;5052055;28;20075;-50
2022/06/26 11:48:54;;;;;;;4.15;2.42;;;21.80;99.00;;;;;;5059625;28;19923;-51
2022/06/26 11:51:21;;;;;;;4.72;2.53;;;21.90;98.80;;;;;;5068795;28;20067;-50
2022/06/26 11:53:49;;;;;;;4.05;1.70;;;21.90;98.80;;;;;;5055756;28;20047;-50
2022/06/26 11:56:24;;;;;;;2.28;1.90;;;21.90;98.50;;;;;;5048434;28;20091;-53
2022/06/26 11:58:51;;;;;;;7.68;1.88;;;21.90;97.70;;;;;;5057114;28;20036;-51
2022/06/26 12:01:18;;;;;;;2.55;1.88;;;21.90;98.10;;;;;;5070729;28;20563;-49
2022/06/26 12:03:43;;;;;;;1.45;1.00;;;21.90;97.80;;;;;;5061252;28;20045;-51
2022/06/26 12:06:09;;;;;;;;;;;21.90;97.50;;;;;;5052085;28;20398;-50
2022/06/26 12:08:35;;;;;;;1.45;1.05;;;21.90;97.80;;;;;;5057674;28;20418;-50
2022/06/26 12:11:01;;;;;;;1.73;1.63;;;21.90;98.10;;;;;;5071833;28;20332;-51
2022/06/26 12:13:30;;;;;;;3.67;1.60;;;22.00;98.40;;;;;;5058938;28;20094;-51
2022/06/26 12:16:07;;;;;;;3.15;2.05;;;21.90;98.00;;;;;;5059025;28;20493;-52
2022/06/26 12:18:37;;;;;;;4.28;1.73;;;21.90;97.20;;;;;;5058534;28;20125;-54
2022/06/26 12:21:04;;;;;;;4.13;2.33;;;21.90;97.10;;;;;;5062495;28;20155;-50
2022/06/26 12:23:34;;;;;;;3.55;2.03;;;21.90;97.30;;;;;;5052329;28;20029;-52
2022/06/26 12:26:05;;;;;;;4.20;2.13;;;21.90;96.70;;;;;;5059215;28;20028;-52
2022/06/26 12:28:31;;;;;;;2.85;2.10;;;21.90;97.30;;;;;;5069111;28;20033;-52
2022/06/26 12:30:56;;;;;;;;;;;21.90;97.70;;;;;;5058347;28;20071;-50
2022/06/26 12:33:22;;;;;;;4.40;1.77;;;21.80;97.70;;;;;;5062308;28;19923;-54
2022/06/26 12:35:47;;;;;;;;;;;21.80;97.70;;;;;;5052632;28;20037;-50
2022/06/26 12:38:13;;;;;;;2.42;2.22;;;21.70;97.30;;;;;;5052534;28;20354;-55
2022/06/26 12:40:39;;;;;;;;;;;21.70;97.40;;;;;;5065264;28;20502;-50
2022/06/26 12:43:04;;;;;;;6.20;2.47;;;21.60;97.10;;;;;;5050607;28;20419;-50
2022/06/26 12:45:30;;;;;;;;;;;21.60;97.30;;;;;;5069594;28;20103;-51
2022/06/26 12:47:55;;;;;;;3.25;1.65;;;21.60;97.20;;;;;;5060711;28;19923;-53
2022/06/26 12:50:21;;;;;;;;;;;21.50;97.50;;;;;;5066983;28;20032;-53
2022/06/26 12:52:46;;;;;;;4.55;1.23;;;21.50;97.40;;;;;;5049877;28;19930;-57
2022/06/26 12:55:12;;;;;;;;;;;21.40;96.80;;;;;;5062193;28;20120;-52
2022/06/26 12:57:38;;;;;;;2.97;0.73;;;21.40;95.80;;;;;;5070994;28;19943;-50
2022/06/26 13:00:04;;;;;;;;;;;21.40;96.10;;;;;;5055797;28;20398;-50